| Date | Time | Temp. (oF) | Dew Point (oF) | Rel. Hum. (%) | Press. (in.) | Wind Dir. | Wind Speed (mph) | Hourly Rainfall (in.) |
|
|---|---|---|---|---|---|---|---|---|---|
| 1 | 10/21 | 00:00 | 48 | 43 | 84 | 30.08 | WNW | 0 | 0.00 |
| 2 | 10/20 | 23:00 | 48 | 41 | 79 | 30.08 | N | 0 | 0.00 |
| 3 | 10/20 | 22:00 | 50 | 41 | 72 | 30.10 | N | 0 | 0.00 |
| 4 | miss | miss | miss | miss | miss | miss | miss | miss | |
| 5 | 10/20 | 21:06 | 51 | 40 | 67 | 30.09 | WNW | 0 | 0.00 |
| 6 | miss | miss | miss | miss | miss | miss | miss | miss | |
| 7 | 10/20 | 21:04 | 51 | 40 | 67 | 30.09 | WNW | 0 | 0.00 |
| 8 | miss | miss | miss | miss | miss | miss | miss | miss | |
| 9 | 10/20 | 21:02 | 52 | 41 | 67 | 30.09 | WNW | 0 | 0.00 |
| 10 | miss | miss | miss | miss | miss | miss | miss | miss | |
| 11 | 10/20 | 21:00 | 52 | 41 | 67 | 30.09 | WNW | 0 | 0.00 |
| 12 | 10/20 | 20:59 | 52 | 41 | 67 | 30.09 | WNW | 0 | 0.00 |
| 13 | 10/20 | 20:58 | 52 | 40 | 66 | 30.09 | WNW | 0 | 0.00 |
| 14 | 10/20 | 20:57 | 52 | 40 | 66 | 30.09 | WNW | 0 | 0.00 |
| 15 | 10/20 | 20:56 | 52 | 40 | 65 | 30.09 | WNW | 0 | 0.00 |
| 16 | 10/20 | 20:55 | 52 | 40 | 65 | 30.09 | WNW | 0 | 0.00 |
| 17 | miss | miss | miss | miss | miss | miss | miss | miss | |
| 18 | 10/20 | 20:53 | 52 | 40 | 65 | 30.08 | WNW | 0 | 0.00 |
| 19 | miss | miss | miss | miss | miss | miss | miss | miss | |
| 20 | 10/20 | 20:51 | 52 | 40 | 66 | 30.09 | WNW | 0 | 0.00 |
| 21 | miss | miss | miss | miss | miss | miss | miss | miss | |
| 22 | 10/20 | 20:49 | 52 | 40 | 66 | 30.09 | WNW | 0 | 0.00 |
| 23 | miss | miss | miss | miss | miss | miss | miss | miss | |
| 24 | 10/20 | 20:47 | 52 | 40 | 66 | 30.09 | WNW | 0 | 0.00 |
| 25 | miss | miss | miss | miss | miss | miss | miss | miss | |
| 26 | 10/20 | 20:46 | 52 | 40 | 66 | 30.09 | WNW | 0 | 0.00 |
| 27 | miss | miss | miss | miss | miss | miss | miss | miss | |
| 28 | 10/20 | 20:46 | 52 | 40 | 66 | 30.09 | WNW | 0 | 0.00 |
| 29 | 10/20 | 20:00 | 52 | 40 | 65 | 30.08 | N | 0 | 0.00 |
| 30 | 10/20 | 19:00 | 53 | 39 | 61 | 30.06 | WNW | 1 | 0.00 |
| 31 | 10/20 | 18:00 | 54 | 39 | 57 | 30.05 | N | 2 | 0.00 |
| 32 | 10/20 | 17:00 | 55 | 39 | 55 | 30.04 | NNW | 1 | 0.00 |
| 33 | 10/20 | 16:00 | 55 | 38 | 53 | 30.05 | N | 7 | 0.00 |
| 34 | 10/20 | 15:00 | 57 | 38 | 51 | 30.05 | NW | 2 | 0.00 |
| 35 | 10/20 | 14:00 | 56 | 39 | 55 | 30.04 | N | 3 | 0.00 |
| 36 | 10/20 | 13:00 | 56 | 39 | 53 | 30.06 | NE | 6 | 0.00 |
| 37 | 10/20 | 12:00 | 56 | 38 | 52 | 30.07 | E | 3 | 0.00 |
| 38 | 10/20 | 11:00 | 54 | 39 | 57 | 30.07 | NNE | 9 | 0.00 |
| 39 | 10/20 | 10:00 | 52 | 41 | 68 | 30.08 | NW | 5 | 0.00 |
| 40 | 10/20 | 09:00 | 50 | 41 | 73 | 30.06 | NNE | 4 | 0.00 |
| 41 | 10/20 | 08:00 | 50 | 41 | 73 | 30.03 | NW | 5 | 0.00 |
| 42 | 10/20 | 07:00 | 51 | 42 | 72 | 30.00 | NNW | 7 | 0.00 |
| 43 | 10/20 | 06:00 | 53 | 44 | 72 | 29.98 | NNW | 8 | 0.00 |
| 44 | 10/20 | 05:00 | 55 | 45 | 70 | 29.96 | WNW | 7 | 0.00 |
| 45 | 10/20 | 04:00 | 56 | 47 | 72 | 29.92 | N | 4 | 0.00 |
| 46 | 10/20 | 03:00 | 58 | 50 | 75 | 29.91 | NE | 1 | 0.00 |
| 47 | 10/20 | 02:00 | 59 | 52 | 80 | 29.88 | NW | 2 | 0.00 |
| 48 | 10/20 | 01:00 | 58 | 55 | 90 | 29.87 | W | 1 | 0.00 |
| 49 | 10/20 | 00:00 | 60 | 55 | 85 | 29.85 | NW | 0 | 0.00 |
| 50 | 10/19 | 23:00 | 63 | 55 | 77 | 29.85 | N | 0 | 0.00 |
| 51 | 10/19 | 22:00 | 65 | 56 | 73 | 29.84 | N | 0 | 0.00 |
| 52 | 10/19 | 21:00 | 66 | 55 | 70 | 29.82 | SSW | 4 | 0.00 |
| 53 | 10/19 | 20:00 | 67 | 55 | 67 | 29.80 | SSW | 5 | 0.00 |
| 54 | 10/19 | 19:00 | 69 | 54 | 59 | 29.78 | S | 5 | 0.00 |
| 55 | 10/19 | 18:00 | 72 | 53 | 52 | 29.78 | S | 7 | 0.00 |
| 56 | 10/19 | 17:00 | 74 | 52 | 47 | 29.77 | SSE | 10 | 0.00 |
| 57 | 10/19 | 16:00 | 75 | 51 | 44 | 29.77 | S | 16 | 0.00 |
| 58 | 10/19 | 15:00 | 75 | 52 | 46 | 29.79 | SSW | 5 | 0.00 |
| 59 | 10/19 | 14:00 | 73 | 51 | 47 | 29.83 | SSW | 13 | 0.00 |
| 60 | 10/19 | 13:00 | 71 | 51 | 50 | 29.87 | S | 7 | 0.00 |
| 61 | 10/19 | 12:00 | 69 | 52 | 56 | 29.91 | S | 7 | 0.00 |
| 62 | 10/19 | 11:00 | 64 | 53 | 68 | 29.94 | S | 5 | 0.00 |
| 63 | 10/19 | 10:00 | 54 | 53 | 98 | 29.95 | ENE | 3 | 0.00 |
| 64 | 10/19 | 09:00 | 47 | 46 | 100 | 29.98 | ENE | 3 | 0.00 |
| 65 | 10/19 | 08:00 | 42 | 41 | 99 | 29.98 | ESE | 0 | 0.00 |
| 66 | 10/19 | 07:00 | 43 | 42 | 98 | 29.97 | ESE | 0 | 0.00 |
| 67 | 10/19 | 06:00 | 44 | 43 | 98 | 29.96 | SW | 0 | 0.00 |
| 68 | 10/19 | 05:00 | 45 | 44 | 97 | 29.95 | WSW | 0 | 0.00 |
| 69 | 10/19 | 04:00 | 46 | 44 | 96 | 29.94 | SSW | 1 | 0.00 |
| 70 | 10/19 | 03:00 | 48 | 45 | 91 | 29.94 | WNW | 0 | 0.00 |
| 71 | 10/19 | 02:00 | 50 | 46 | 87 | 29.93 | NW | 1 | 0.00 |
| 72 | 10/19 | 01:00 | 52 | 46 | 83 | 29.92 | SSE | 0 | 0.00 |
| 73 | 10/19 | 00:00 | 54 | 46 | 76 | 29.90 | S | 3 | 0.00 |